Flight Track Log - Related Links

Times and Time Zones

All times are in EST time to prevent confusion due to time zone crossing. See the UAL1019 flight status page for this flight to view local times or setup timezone preferences in your user account.


Time Position Orientation Groundspeed Altitude Reporting Facility
EST Latitude Longitude Course Direction KTS MPH feet Rate Location/Type
Mon 04:18:00 PM 21.4161 -87.2044 261° West  Level Estimated
Mon 04:19:00 PM 21.5109 -87.2865 270° West  Level Estimated
Mon 04:20:00 PM 21.4473 -87.3981 239° Southwest  Level FlightAware Approximate
Mon 04:21:00 PM 21.5428 -87.4792 270° West  Level Estimated
Mon 04:22:00 PM 21.6382 -87.5605 262° West  Level Estimated
Mon 04:23:00 PM 21.7337 -87.6419 267° West  Level Estimated
Mon 04:24:00 PM 21.6634 -87.7489 235° Southwest  Level FlightAware Approximate
Mon 04:25:00 PM 21.5932 -87.8559 235° Southwest  Level FlightAware Approximate
Mon 04:26:00 PM 21.6901 -87.9351 267° West  Level Estimated
Mon 04:27:00 PM 21.6218 -88.0435 236° Southwest  Level FlightAware Approximate
Mon 04:28:00 PM 21.7195 -88.1217 267° West  Level Estimated
Mon 04:29:00 PM 21.6764 -88.2442 249° West  Level FlightAware Approximate
Mon 04:30:00 PM 21.6332 -88.3667 249° West  Level FlightAware Approximate
Mon 04:31:00 PM 21.5899 -88.4891 249° West  Level FlightAware Approximate
Mon 04:32:00 PM 21.5465 -88.6115 249° West  Level FlightAware Approximate
Mon 04:33:00 PM 21.5030 -88.7337 249° West  Level FlightAware Approximate
Mon 04:34:00 PM 21.4595 -88.8559 249° West  Level FlightAware Approximate
Mon 04:35:00 PM 21.4159 -88.9780 249° West  Level FlightAware Approximate
Mon 04:36:00 PM 21.3721 -89.1001 249° West  Level FlightAware Approximate
Mon 04:37:00 PM 21.3283 -89.2220 249° West  Level FlightAware Approximate
Mon 04:38:00 PM 21.2844 -89.3439 249° West  Level FlightAware Approximate
Mon 04:39:00 PM 21.3892 -89.4105 10° North  Level Estimated
Mon 04:40:00 PM 21.3996 -89.5408 275° West  Level FlightAware Approximate
Mon 04:41:00 PM 21.4098 -89.6711 275° West  Level FlightAware Approximate
Mon 04:42:00 PM 21.4200 -89.8014 275° West  Level FlightAware Approximate
Mon 04:43:00 PM 21.4301 -89.9318 275° West  Level FlightAware Approximate
Mon 04:44:00 PM 21.5370 -89.9943 10° North  Level Estimated
Mon 04:45:00 PM 21.6537 -90.0316 343° North  Level FlightAware Approximate
Mon 04:46:00 PM 21.7734 -90.0699 343° North  Level FlightAware Approximate
Mon 04:47:00 PM 21.8931 -90.1083 343° North  Level FlightAware Approximate
Mon 04:48:00 PM 22.0127 -90.1467 343° North  Level FlightAware Approximate
Mon 04:49:00 PM 22.1324 -90.1852 343° North  Level FlightAware Approximate
Mon 04:50:00 PM 22.2520 -90.2237 343° North  Level FlightAware Approximate
Mon 04:51:00 PM 22.3605 -90.2905 10° North  Level Estimated
Mon 04:52:00 PM 22.4803 -90.2525 16° North  Level FlightAware Approximate
Mon 04:53:00 PM 22.6001 -90.2144 16° North  Level FlightAware Approximate
Mon 04:54:00 PM 22.7074 -90.2837 10° North  Level Estimated
Mon 04:55:00 PM 22.8290 -90.2532 13° North  Level FlightAware Approximate
Mon 04:56:00 PM 22.9507 -90.2227 13° North  Level FlightAware Approximate
Mon 04:57:00 PM 23.0723 -90.1922 13° North  Level FlightAware Approximate
Mon 04:58:00 PM 23.1939 -90.1615 13° North  Level FlightAware Approximate
Mon 04:59:00 PM 23.3156 -90.1309 13° North  Level FlightAware Approximate
Mon 05:00:00 PM 23.4372 -90.1001 13° North  Level FlightAware Approximate
Mon 05:01:00 PM 23.5588 -90.0693 13° North  Level FlightAware Approximate
Mon 05:02:00 PM 23.6804 -90.0385 13° North  Level FlightAware Approximate
Mon 05:03:00 PM 23.8020 -90.0076 13° North  Level FlightAware Approximate
Mon 05:04:00 PM 23.9236 -89.9766 13° North  Level FlightAware Approximate
Mon 05:05:00 PM 24.0452 -89.9456 13° North  Level FlightAware Approximate
Mon 05:06:00 PM 24.1668 -89.9145 13° North  Level FlightAware Approximate
Mon 05:07:00 PM 24.2884 -89.8834 13° North  Level FlightAware Approximate
Mon 05:08:00 PM 24.3850 -89.9701 318° Northwest  Level Estimated
Mon 05:09:00 PM 24.4817 -90.0570 326° Northwest  Level Estimated
Mon 05:10:00 PM 24.6057 -90.0721 354° North  Level FlightAware Approximate
Mon 05:11:00 PM 24.7298 -90.0873 354° North  Level FlightAware Approximate
Mon 05:12:00 PM 24.8248 -90.1765 325° Northwest  Level Estimated
Mon 05:13:00 PM 24.9296 -90.2514 327° Northwest  Level FlightAware Approximate
Mon 05:14:00 PM 25.0343 -90.3265 327° Northwest  Level FlightAware Approximate
Mon 05:15:00 PM 25.1389 -90.4017 327° Northwest  Level FlightAware Approximate
Mon 05:16:00 PM 25.2435 -90.4770 327° Northwest  Level FlightAware Approximate
Mon 05:17:00 PM 25.3481 -90.5524 327° Northwest  Level FlightAware Approximate
Mon 05:18:00 PM 25.4526 -90.6280 327° Northwest  Level FlightAware Approximate
Mon 05:19:00 PM 25.5571 -90.7037 327° Northwest  Level FlightAware Approximate
Mon 05:20:00 PM 25.6616 -90.7795 327° Northwest  Level FlightAware Approximate
Mon 05:21:00 PM 25.7660 -90.8555 327° Northwest  Level FlightAware Approximate
Mon 05:22:00 PM 25.8704 -90.9316 327° Northwest  Level FlightAware Approximate
Mon 05:23:00 PM 25.9747 -91.0078 327° Northwest  Level FlightAware Approximate
Mon 05:23:18 PM 26.6850 -91.5583 326° Northwest 399 459 38,000  Level Houston Center
Mon 05:24:00 PM 26.0790 -91.0842 327° Northwest  Level FlightAware Approximate
Mon 05:24:20 PM 26.7808 -91.6331 325° Northwest 414 476 38,000  Level Houston Center
Mon 05:25:00 PM 26.1833 -91.1607 327° Northwest  Level FlightAware Approximate
Mon 05:25:22 PM 26.8919 -91.7225 324° Northwest 423 487 38,000  Level Houston Center
Mon 05:26:00 PM 26.2875 -91.2373 327° Northwest  Level FlightAware Approximate
Mon 05:26:24 PM 26.9883 -91.7986 325° Northwest 425 489 38,000  Level Houston Center
Mon 05:27:00 PM 26.3781 -91.3331 325° Northwest  Level Estimated
Mon 05:27:26 PM 27.0850 -91.8772 324° Northwest 427 491 37,900  Level Houston Center
Mon 05:28:00 PM 26.4816 -91.4113 326° Northwest  Level FlightAware Approximate
Mon 05:28:28 PM 27.1811 -91.9536 325° Northwest 426 490 38,000  Level Houston Center
Mon 05:29:30 PM 27.2764 -92.0308 324° Northwest 423 487 37,900  Descending Houston Center
Mon 05:30:32 PM 27.3906 -92.1236 324° Northwest 422 486 38,000 48 Climbing Houston Center
Mon 05:31:34 PM 27.4850 -92.2006 324° Northwest 420 483 38,000  Level Houston Center
Mon 05:32:36 PM 27.5800 -92.2764 325° Northwest 419 482 38,000  Level Houston Center
Mon 05:33:38 PM 27.6736 -92.3536 324° Northwest 419 482 38,000  Level Houston Center
Mon 05:34:40 PM 27.7672 -92.4297 324° Northwest 416 479 38,000  Level Houston Center
Mon 05:35:42 PM 27.8617 -92.5075 324° Northwest 419 482 38,000  Level Houston Center
Mon 05:36:44 PM 27.9747 -92.6003 324° Northwest 419 482 38,000  Level Houston Center
Mon 05:37:46 PM 28.0689 -92.6775 324° Northwest 419 482 38,000  Level Houston Center
Mon 05:38:48 PM 28.1633 -92.7547 324° Northwest 419 482 38,000  Level Houston Center
Mon 05:39:50 PM 28.2564 -92.8322 324° Northwest 416 479 38,000  Level Houston Center
Mon 05:40:52 PM 28.3489 -92.9106 323° Northwest 415 478 38,000 -48 Level Houston Center
Mon 05:41:54 PM 28.4436 -92.9872 325° Northwest 417 480 37,900  Descending Houston Center
Mon 05:42:56 PM 28.5550 -93.0803 324° Northwest 415 478 38,000 49 Climbing Houston Center
Mon 05:43:57 PM 28.6489 -93.1594 324° Northwest 419 482 38,000 -146 Level Houston Center
Mon 05:44:59 PM 28.7417 -93.2358 324° Northwest 414 476 37,700 -581 Descending Houston Center
Mon 05:46:01 PM 28.8353 -93.3153 323° Northwest 417 480 36,800 -2,226 Descending Houston Center
Mon 05:47:03 PM 28.9142 -93.4136 313° West 419 482 33,100 -3,145 Descending Houston Center
Mon 05:48:05 PM 28.9878 -93.5217 308° West 428 493 30,300 -2,419 Descending Houston Center
Mon 05:49:07 PM 29.0569 -93.6281 307° West 418 481 28,100 -2,341 Descending Houston Center
Mon 05:50:08 PM 29.1367 -93.7464 308° West 395 455 25,500 -2,244 Descending Houston Center
Mon 05:51:10 PM 29.2022 -93.8428 308° West 385 443 23,500 -1,790 Descending Houston Center
Mon 05:52:12 PM 29.2553 -93.9236 307° West 372 428 21,800 -1,935 Descending Houston Center
Mon 05:53:14 PM 29.3272 -94.0314 307° West 358 412 19,500 -1,887 Descending Houston Center
Mon 05:54:16 PM 29.3858 -94.1197 307° West 352 405 17,900 -1,694 Descending Houston Center
Mon 05:54:39 PM 29.4106 -94.1594 306° West 348 400 17,100 -1,869 Descending Houston Center
Mon 05:55:17 PM 29.4436 -94.2075 308° West 346 398 16,000 -1,967 Descending Houston Center
Mon 05:55:40 PM 29.4656 -94.2458 303° West 343 395 15,100 -2,226 Descending Houston Center
Mon 05:56:19 PM 29.5078 -94.3042 310° West 340 391 13,700 -2,073 Descending Houston Center
Mon 05:56:35 PM 29.5219 -94.3275 305° West 339 390 13,200 -1,452 Descending Houston Center
Mon 05:57:21 PM 29.5511 -94.3828 301° West 335 386 12,200 -1,433 Descending Houston Center
Mon 05:57:42 PM 29.5681 -94.4319 292° West 325 374 11,600 -1,355 Descending Houston Center
Mon 05:58:23 PM 29.5894 -94.4753 300° West 324 373 10,800 -1,279 Descending Houston Center
Mon 05:58:43 PM 29.6086 -94.5231 295° West 305 351 10,300 -1,161 Descending Houston Center
Mon 05:59:25 PM 29.6336 -94.5761 298° West 298 343 9,600 -1,180 Descending Houston Center
Mon 05:59:44 PM 29.6439 -94.6050 292° West 285 328 9,100 -1,475 Descending Houston Center
Mon 06:00:26 PM 29.6708 -94.6525 303° West 279 321 8,100 -1,429 Descending Houston Center
Mon 06:00:47 PM 29.6928 -94.6733 320° Northwest 274 315 7,600 -1,452 Descending Houston Center
Mon 06:01:28 PM 29.7325 -94.7053 325° Northwest 277 319 6,600 -1,525 Descending Houston Center
Mon 06:01:46 PM 29.7544 -94.7258 321° Northwest 275 316 6,100 -1,258 Descending Houston Center
Mon 06:02:30 PM 29.7936 -94.7575 325° Northwest 276 318 5,300 -1,418 Descending Houston Center
Mon 06:02:41 PM 29.8094 -94.7742 318° Northwest 271 312 4,800 -1,258 Descending Houston Center
Mon 06:03:32 PM 29.8531 -94.8086 326° Northwest 271 312 4,000 -787 Descending Houston Center
Mon 06:03:42 PM 29.8689 -94.8244 319° Northwest 265 305 4,000 -417 Level Houston Center
Mon 06:04:44 PM 29.9239 -94.8708 324° Northwest 223 257 3,500 -474 Descending Houston Center
Mon 06:05:36 PM 29.9675 -94.9072 324° Northwest 227 261 3,100 -448 Descending Houston Center
Mon 06:05:51 PM 29.9753 -94.9247 297° West 227 261 3,000 -97 Descending Houston Center
Mon 06:06:38 PM 29.9778 -94.9758 273° West 231 266 3,000 -98 Level Houston Center
Mon 06:06:52 PM 29.9778 -94.9967 270° West 227 261 2,900 -387 Descending Houston Center
Mon 06:07:40 PM 29.9781 -95.0481 270° West 226 260 2,600 -393 Descending Houston Center
Mon 06:07:53 PM 29.9764 -95.0717 265° West 221 254 2,500 -387 Descending Houston Center
Mon 06:08:42 PM 29.9781 -95.1169 272° West 221 254 2,200 -393 Descending Houston Center
Mon 06:08:54 PM 29.9767 -95.1417 266° West 213 245 2,100 -194 Descending Houston Center
Mon 06:09:44 PM 29.9792 -95.1819 274° West 214 246 2,000 -290 Descending Houston Center
Mon 06:09:56 PM 29.9778 -95.1992 265° West 164 189 1,800 -871 Descending Houston Center
Mon 06:10:46 PM 29.9783 -95.2422 271° West 177 204 1,100 -885 Descending Houston Center
Mon 06:10:57 PM 29.9764 -95.2525 258° West 156 180 900 -774 Descending Houston Center
Mon 06:11:48 PM 29.9775 -95.2911 272° West 160 184 300 -706 Descending Houston Center
Mon 06:13:00 PM 29.9833 -95.3333 311° West  Level FlightAware Approximate

Login

Don't have an account? Register now (free) for customized features, flight alerts, and more!